createdAt,value
2023-03-05T00:01:30.020Z,100626.22
2023-03-05T00:03:58.291Z,100632.41
2023-03-05T00:06:28.822Z,100635.97
2023-03-05T00:08:58.679Z,100635.97
2023-03-05T00:11:30.327Z,100631.59
2023-03-05T00:13:59.232Z,100627.25
2023-03-05T00:16:28.768Z,100629.06
2023-03-05T00:18:58.640Z,100622.00
2023-03-05T00:21:38.920Z,100618.50
2023-03-05T00:24:18.494Z,100620.22
2023-03-05T00:26:46.951Z,100622.94
2023-03-05T00:29:18.654Z,100619.47
2023-03-05T00:31:47.373Z,100619.47
2023-03-05T00:34:18.050Z,100616.03
2023-03-05T00:36:50.516Z,100616.03
2023-03-05T00:39:20.779Z,100613.50
2023-03-05T00:41:49.814Z,100614.44
2023-03-05T00:44:17.971Z,100617.03
2023-03-05T00:46:46.406Z,100611.84
2023-03-05T00:49:14.706Z,100617.16
2023-03-05T00:51:43.221Z,100613.56
2023-03-05T00:54:11.509Z,100613.63
2023-03-05T00:56:40.058Z,100616.28
2023-03-05T00:59:08.236Z,100619.00
2023-03-05T01:01:37.698Z,100610.22
2023-03-05T01:04:06.062Z,100613.75
2023-03-05T01:06:34.830Z,100609.38
2023-03-05T01:09:03.385Z,100616.47
2023-03-05T01:11:32.380Z,100620.00
2023-03-05T01:14:00.758Z,100608.56
2023-03-05T01:16:30.681Z,100611.22
2023-03-05T01:18:59.028Z,100596.28
2023-03-05T01:21:27.672Z,100606.88
2023-03-05T01:23:56.013Z,100606.03
2023-03-05T01:26:24.651Z,100599.00
2023-03-05T01:28:53.071Z,100593.00
2023-03-05T01:31:22.476Z,100595.59
2023-03-05T01:33:54.731Z,100590.22
2023-03-05T01:36:25.345Z,100593.78
2023-03-05T01:38:53.701Z,100592.06
2023-03-05T01:41:22.432Z,100593.78
2023-03-05T01:43:53.128Z,100590.34
2023-03-05T01:46:28.886Z,100582.38
2023-03-05T01:49:36.501Z,100577.00
2023-03-05T01:52:14.445Z,100582.44
2023-03-05T01:54:46.006Z,100579.72
2023-03-05T01:57:21.208Z,100573.56
2023-03-05T01:59:52.451Z,100578.00
2023-03-05T02:02:22.472Z,100578.00
2023-03-05T02:04:55.910Z,100578.00
2023-03-05T02:07:24.918Z,100577.19
2023-03-05T02:09:53.388Z,100573.66
2023-03-05T02:12:22.566Z,100571.94
2023-03-05T02:14:58.886Z,100564.16
2023-03-05T02:17:28.521Z,100571.94
2023-03-05T02:20:06.979Z,100573.78
2023-03-05T02:22:35.912Z,100568.47
2023-03-05T02:25:20.562Z,100558.09
2023-03-05T02:27:57.688Z,100563.22
2023-03-05T02:30:27.732Z,100559.72
2023-03-05T02:32:56.293Z,100562.31
2023-03-05T02:35:25.312Z,100553.66
2023-03-05T02:37:55.541Z,100559.88
2023-03-05T02:40:24.198Z,100556.41
2023-03-05T02:42:53.007Z,100557.22
2023-03-05T02:45:21.740Z,100554.59
2023-03-05T02:47:50.428Z,100546.78
2023-03-05T02:50:19.081Z,100548.50
2023-03-05T02:52:48.175Z,100546.78
2023-03-05T02:55:18.120Z,100538.81
2023-03-05T02:57:46.790Z,100539.72
2023-03-05T03:00:15.820Z,100541.47
2023-03-05T03:02:44.653Z,100539.69
2023-03-05T03:05:13.112Z,100538.88
2023-03-05T03:07:42.221Z,100539.72
2023-03-05T03:10:11.466Z,100538.00
2023-03-05T03:12:41.592Z,100536.28
2023-03-05T03:15:12.641Z,100535.47
2023-03-05T03:17:41.313Z,100539.00
2023-03-05T03:20:14.545Z,100534.53
2023-03-05T03:22:45.085Z,100529.38
2023-03-05T03:25:21.647Z,100539.09
2023-03-05T03:27:53.726Z,100533.81
2023-03-05T03:30:22.044Z,100534.72
2023-03-05T03:32:51.974Z,100529.47
2023-03-05T03:35:20.420Z,100527.75
2023-03-05T03:37:49.466Z,100531.22
2023-03-05T03:40:18.282Z,100524.16
2023-03-05T03:42:46.978Z,100513.69
2023-03-05T03:45:16.336Z,100520.72
2023-03-05T03:47:45.011Z,100513.69
2023-03-05T03:50:13.469Z,100518.97
2023-03-05T03:52:42.142Z,100513.81
2023-03-05T03:55:10.862Z,100521.72
2023-03-05T03:57:39.562Z,100521.72
2023-03-05T04:00:08.602Z,100514.69
2023-03-05T04:02:40.873Z,100516.44
2023-03-05T04:05:09.852Z,100520.06
2023-03-05T04:07:38.755Z,100517.41
2023-03-05T04:10:07.486Z,100520.97
2023-03-05T04:12:36.312Z,100527.22
2023-03-05T04:15:08.066Z,100506.09
2023-03-05T04:17:37.024Z,100519.31
2023-03-05T04:20:08.786Z,100510.59
2023-03-05T04:22:38.142Z,100513.13
2023-03-05T04:25:08.643Z,100510.50
2023-03-05T04:27:43.423Z,100507.91
2023-03-05T04:30:15.230Z,100503.56
2023-03-05T04:32:44.238Z,100498.25
2023-03-05T04:35:12.708Z,100503.56
2023-03-05T04:37:41.476Z,100498.25
2023-03-05T04:40:10.503Z,100498.25
2023-03-05T04:42:39.153Z,100501.91
2023-03-05T04:45:08.653Z,100503.63
2023-03-05T04:47:37.822Z,100497.56
2023-03-05T04:50:07.221Z,100495.84
2023-03-05T04:52:40.608Z,100494.00
2023-03-05T04:55:09.761Z,100499.38
2023-03-05T04:57:38.591Z,100501.16
2023-03-05T05:00:14.442Z,100502.97
2023-03-05T05:02:44.479Z,100499.56
2023-03-05T05:05:15.131Z,100501.25
2023-03-05T05:07:44.122Z,100502.09
2023-03-05T05:10:12.989Z,100494.94
2023-03-05T05:12:41.610Z,100499.13
2023-03-05T05:15:10.450Z,100506.09
2023-03-05T05:17:39.258Z,100501.34
2023-03-05T05:20:08.461Z,100498.50
2023-03-05T05:22:37.869Z,100501.66
2023-03-05T05:25:06.458Z,100506.91
2023-03-05T05:27:35.188Z,100508.25
2023-03-05T05:30:04.400Z,100505.22
2023-03-05T05:32:33.144Z,100502.94
2023-03-05T05:35:01.410Z,100492.19
2023-03-05T05:37:30.884Z,100491.06
2023-03-05T05:39:59.182Z,100498.28
2023-03-05T05:42:29.794Z,100492.91
2023-03-05T05:44:57.946Z,100494.09
2023-03-05T05:47:26.438Z,100499.06
2023-03-05T05:49:54.636Z,100502.66
2023-03-05T05:52:23.199Z,100496.53
2023-03-05T05:54:51.436Z,100504.38
2023-03-05T05:57:19.856Z,100506.59
2023-03-05T05:59:48.068Z,100511.56
2023-03-05T06:02:16.579Z,100505.63
2023-03-05T06:04:44.765Z,100510.16
2023-03-05T06:07:13.235Z,100512.94
2023-03-05T06:09:41.379Z,100519.28
2023-03-05T06:12:09.969Z,100517.56
2023-03-05T06:14:38.138Z,100520.88
2023-03-05T06:17:06.797Z,100512.09
2023-03-05T06:19:35.043Z,100523.19
2023-03-05T06:22:03.716Z,100524.25
2023-03-05T06:24:32.010Z,100526.63
2023-03-05T06:27:00.915Z,100530.09
2023-03-05T06:29:29.108Z,100525.19
2023-03-05T06:31:57.718Z,100524.31
2023-03-05T06:34:25.974Z,100531.81
2023-03-05T06:36:54.485Z,100534.38
2023-03-05T06:39:22.973Z,100530.31
2023-03-05T06:41:52.321Z,100541.88
2023-03-05T06:44:20.507Z,100548.97
2023-03-05T06:46:49.120Z,100548.19
2023-03-05T06:49:17.515Z,100545.03
2023-03-05T06:51:45.964Z,100543.16
2023-03-05T06:54:16.107Z,100540.50
2023-03-05T06:56:46.671Z,100539.63
2023-03-05T06:59:16.444Z,100550.47
2023-03-05T07:01:45.454Z,100540.84
2023-03-05T07:04:14.578Z,100544.63
2023-03-05T07:06:43.585Z,100546.47
2023-03-05T07:09:15.115Z,100544.69
2023-03-05T07:11:43.728Z,100547.63
2023-03-05T07:14:11.869Z,100539.59
2023-03-05T07:16:40.268Z,100541.59
2023-03-05T07:19:08.662Z,100535.66
2023-03-05T07:21:39.754Z,100536.53
2023-03-05T07:24:09.070Z,100538.25
2023-03-05T07:26:37.858Z,100534.03
2023-03-05T07:29:05.993Z,100544.56
2023-03-05T07:31:34.569Z,100536.00
2023-03-05T07:34:03.987Z,100536.06
2023-03-05T07:36:34.162Z,100531.75
2023-03-05T07:39:03.138Z,100533.47
2023-03-05T07:41:31.842Z,100539.72
2023-03-05T07:43:59.944Z,100532.75
2023-03-05T07:46:32.226Z,100541.69
2023-03-05T07:49:00.919Z,100536.38
2023-03-05T07:51:29.599Z,100537.31
2023-03-05T07:53:59.057Z,100539.03
2023-03-05T07:56:35.639Z,100535.59
2023-03-05T07:59:09.231Z,100535.59
2023-03-05T08:01:37.899Z,100530.28
2023-03-05T08:04:07.699Z,100534.72
2023-03-05T08:06:40.763Z,100532.16
2023-03-05T08:09:08.845Z,100539.34
2023-03-05T08:11:37.309Z,100532.28
2023-03-05T08:14:05.480Z,100526.13
2023-03-05T08:16:34.109Z,100530.56
2023-03-05T08:19:02.663Z,100526.06
2023-03-05T08:21:35.781Z,100527.91
2023-03-05T08:24:07.109Z,100521.66
2023-03-05T08:26:38.675Z,100516.34
2023-03-05T08:29:08.288Z,100517.16
2023-03-05T08:31:37.841Z,100516.28
2023-03-05T08:34:06.789Z,100516.28
2023-03-05T08:36:35.436Z,100509.19
2023-03-05T08:39:03.995Z,100510.75
2023-03-05T08:41:32.752Z,100515.28
2023-03-05T08:44:01.201Z,100513.81
2023-03-05T08:46:29.913Z,100518.06
2023-03-05T08:48:58.063Z,100516.47
2023-03-05T08:51:27.354Z,100524.19
2023-03-05T08:53:56.591Z,100517.66
2023-03-05T08:56:27.685Z,100528.22
2023-03-05T08:58:55.755Z,100514.75
2023-03-05T09:01:49.917Z,100530.00
2023-03-05T09:04:18.922Z,100528.47
2023-03-05T09:06:47.505Z,100521.63
2023-03-05T09:09:16.540Z,100524.00
2023-03-05T09:11:45.403Z,100529.28
2023-03-05T09:14:13.561Z,100527.44
2023-03-05T09:16:42.673Z,100526.47
2023-03-05T09:19:12.903Z,100522.91
2023-03-05T09:21:42.399Z,100525.16
2023-03-05T09:24:12.007Z,100521.06
2023-03-05T09:26:42.388Z,100523.13
2023-03-05T09:29:10.632Z,100517.97
2023-03-05T09:31:39.422Z,100519.84
2023-03-05T09:34:09.044Z,100506.00
2023-03-05T09:36:37.671Z,100504.06
2023-03-05T09:39:07.197Z,100515.41
2023-03-05T09:41:58.851Z,100507.78
2023-03-05T09:45:05.990Z,100505.53
2023-03-05T09:48:10.391Z,100494.72
2023-03-05T09:50:41.587Z,100499.78
2023-03-05T09:53:21.413Z,100497.06
2023-03-05T09:55:56.220Z,100490.91
2023-03-05T09:58:43.321Z,100504.91
2023-03-05T10:01:40.026Z,100489.72
2023-03-05T10:04:44.043Z,100493.25
2023-03-05T10:07:17.728Z,100479.97
2023-03-05T10:09:57.082Z,100479.84
2023-03-05T10:12:43.095Z,100473.69
2023-03-05T10:15:37.936Z,100480.63
2023-03-05T10:18:33.819Z,100477.84
2023-03-05T10:21:17.729Z,100473.50
2023-03-05T10:24:12.063Z,100472.53
2023-03-05T10:26:56.880Z,100466.41
2023-03-05T10:29:43.461Z,100468.06
2023-03-05T10:32:24.563Z,100463.69
2023-03-05T10:35:14.431Z,100459.19
2023-03-05T10:38:04.013Z,100456.59
2023-03-05T10:40:47.090Z,100460.91
2023-03-05T10:43:32.731Z,100448.56
2023-03-05T10:46:04.140Z,100452.88
2023-03-05T10:48:39.714Z,100458.19
2023-03-05T10:51:21.460Z,100445.03
2023-03-05T10:53:57.154Z,100444.13
2023-03-05T10:56:28.403Z,100443.19
2023-03-05T10:58:56.901Z,100439.59
2023-03-05T11:01:29.658Z,100438.81
2023-03-05T11:04:06.927Z,100442.25
2023-03-05T11:06:41.255Z,100422.75
2023-03-05T11:09:30.215Z,100431.66
2023-03-05T11:12:08.715Z,100429.91
2023-03-05T11:14:40.604Z,100416.69
2023-03-05T11:17:30.620Z,100424.47
2023-03-05T11:20:28.267Z,100411.06
2023-03-05T11:23:15.947Z,100405.88
2023-03-05T11:26:02.511Z,100398.78
2023-03-05T11:28:34.463Z,100392.63
2023-03-05T11:31:18.579Z,100389.03
2023-03-05T11:34:19.132Z,100389.97
2023-03-05T11:36:53.776Z,100388.97
2023-03-05T11:39:24.226Z,100378.41
2023-03-05T11:42:01.826Z,100373.09
2023-03-05T11:44:35.899Z,100370.31
2023-03-05T11:47:26.397Z,100363.28
2023-03-05T11:50:05.984Z,100355.38
2023-03-05T11:52:43.187Z,100359.75
2023-03-05T11:55:20.251Z,100360.47
2023-03-05T11:58:07.996Z,100355.00
2023-03-05T12:00:38.142Z,100347.34
2023-03-05T12:03:13.775Z,100348.19
2023-03-05T12:05:46.330Z,100334.06
2023-03-05T12:08:25.934Z,100338.50
2023-03-05T12:10:54.340Z,100319.84
2023-03-05T12:13:29.920Z,100320.66
2023-03-05T12:16:09.024Z,100311.75
2023-03-05T12:18:49.839Z,100315.28
2023-03-05T12:21:28.153Z,100303.78
2023-03-05T12:24:01.526Z,100300.34
2023-03-05T12:27:09.512Z,100301.13
2023-03-05T12:29:42.335Z,100299.16
2023-03-05T12:32:23.143Z,100284.09
2023-03-05T12:34:54.383Z,100280.66
2023-03-05T12:37:23.562Z,100276.31
2023-03-05T12:40:21.225Z,100278.00
2023-03-05T12:42:57.902Z,100272.63
2023-03-05T12:45:29.562Z,100266.31
2023-03-05T12:47:57.736Z,100262.84
2023-03-05T12:50:29.173Z,100254.88
2023-03-05T12:53:12.007Z,100250.38
2023-03-05T12:56:04.234Z,100259.13
2023-03-05T12:58:45.183Z,100245.06
2023-03-05T13:01:40.451Z,100249.38
2023-03-05T13:04:17.182Z,100238.81
2023-03-05T13:06:46.043Z,100243.19
2023-03-05T13:09:25.590Z,100236.94
2023-03-05T13:11:54.856Z,100236.03
2023-03-05T13:14:40.082Z,100236.03
2023-03-05T13:17:47.692Z,100225.31
2023-03-05T13:20:40.476Z,100219.06
2023-03-05T13:23:16.937Z,100222.66
2023-03-05T13:25:46.058Z,100219.94
2023-03-05T13:28:17.329Z,100209.31
2023-03-05T13:31:01.196Z,100215.41
2023-03-05T13:33:36.055Z,100208.38
2023-03-05T13:36:05.057Z,100206.59
2023-03-05T13:38:44.571Z,100210.19
2023-03-05T13:41:15.871Z,100206.59
2023-03-05T13:43:51.817Z,100205.72
2023-03-05T13:46:33.938Z,100201.13
2023-03-05T13:49:26.553Z,100202.94
2023-03-05T13:51:58.042Z,100202.00
2023-03-05T13:54:27.850Z,100193.06
2023-03-05T13:57:07.267Z,100196.69
2023-03-05T13:59:39.029Z,100191.38
2023-03-05T14:02:20.885Z,100193.06
2023-03-05T14:04:49.626Z,100191.38
2023-03-05T14:07:21.003Z,100188.59
2023-03-05T14:09:52.376Z,100185.88
2023-03-05T14:12:49.502Z,100179.63
2023-03-05T14:15:27.033Z,100173.53
2023-03-05T14:18:19.892Z,100169.16
2023-03-05T14:21:17.507Z,100170.13
2023-03-05T14:23:51.803Z,100166.50
2023-03-05T14:26:29.933Z,100155.13
2023-03-05T14:29:03.868Z,100168.22
2023-03-05T14:31:39.346Z,100148.88
2023-03-05T14:34:07.834Z,100154.19
2023-03-05T14:36:36.563Z,100148.69
2023-03-05T14:39:05.232Z,100148.69
2023-03-05T14:41:33.583Z,100145.09
2023-03-05T14:44:02.187Z,100138.06
2023-03-05T14:46:30.555Z,100136.34
2023-03-05T14:48:58.732Z,100131.03
2023-03-05T14:51:27.174Z,100131.03
2023-03-05T14:53:55.633Z,100124.84
2023-03-05T14:56:26.783Z,100119.66
2023-03-05T14:58:57.673Z,100124.00
2023-03-05T15:01:26.268Z,100116.81
2023-03-05T15:03:54.440Z,100115.94
2023-03-05T15:06:35.324Z,100118.69
2023-03-05T15:09:05.407Z,100111.69
2023-03-05T15:11:34.419Z,100113.47
2023-03-05T15:14:02.517Z,100106.38
2023-03-05T15:16:32.192Z,100101.22
2023-03-05T15:19:00.869Z,100108.16
2023-03-05T15:21:30.154Z,100094.19
2023-03-05T15:23:58.164Z,100099.50
2023-03-05T15:26:26.733Z,100099.63
2023-03-05T15:28:54.800Z,100095.19
2023-03-05T15:31:23.459Z,100097.91
2023-03-05T15:33:51.644Z,100097.91
2023-03-05T15:36:19.964Z,100098.84
2023-03-05T15:38:48.225Z,100095.25
2023-03-05T15:41:17.755Z,100090.88
2023-03-05T15:43:45.945Z,100092.75
2023-03-05T15:46:14.399Z,100087.44
2023-03-05T15:48:44.564Z,100091.88
2023-03-05T15:51:13.253Z,100095.41
2023-03-05T15:53:41.309Z,100089.22
2023-03-05T15:56:15.124Z,100089.31
2023-03-05T15:58:43.694Z,100086.59
2023-03-05T16:01:12.792Z,100082.28
2023-03-05T16:03:40.951Z,100091.19
2023-03-05T16:06:10.045Z,100080.56
2023-03-05T16:08:38.475Z,100072.78
2023-03-05T16:11:07.637Z,100072.84
2023-03-05T16:13:35.737Z,100072.91
2023-03-05T16:16:06.874Z,100071.19
2023-03-05T16:18:38.934Z,100068.69
2023-03-05T16:21:07.566Z,100060.66
2023-03-05T16:23:35.685Z,100058.78
2023-03-05T16:26:04.163Z,100070.78
2023-03-05T16:28:34.015Z,100067.75
2023-03-05T16:31:02.611Z,100061.81
2023-03-05T16:33:30.896Z,100061.50
2023-03-05T16:36:11.689Z,100055.72
2023-03-05T16:38:40.020Z,100057.44
2023-03-05T16:41:09.022Z,100063.44
2023-03-05T16:43:37.149Z,100063.34
2023-03-05T16:46:05.550Z,100052.09
2023-03-05T16:48:35.945Z,100060.19
2023-03-05T16:51:05.774Z,100045.94
2023-03-05T16:53:33.895Z,100048.13
2023-03-05T16:56:07.415Z,100042.91
2023-03-05T16:58:37.799Z,100044.28
2023-03-05T17:01:12.085Z,100037.75
2023-03-05T17:03:41.808Z,100042.13
2023-03-05T17:06:16.513Z,100047.44
2023-03-05T17:08:45.885Z,100050.09
2023-03-05T17:11:15.101Z,100053.53
2023-03-05T17:13:43.930Z,100046.66
2023-03-05T17:16:15.914Z,100060.94
2023-03-05T17:18:44.209Z,100054.94
2023-03-05T17:21:13.178Z,100067.78
2023-03-05T17:23:42.310Z,100064.44
2023-03-05T17:26:14.556Z,100069.66
2023-03-05T17:28:43.092Z,100077.00
2023-03-05T17:31:12.396Z,100080.75
2023-03-05T17:33:44.129Z,100091.81
2023-03-05T17:36:19.064Z,100085.06
2023-03-05T17:38:48.167Z,100090.53
2023-03-05T17:41:18.501Z,100093.53
2023-03-05T17:43:46.752Z,100089.06
2023-03-05T17:46:17.209Z,100095.66
2023-03-05T17:48:45.707Z,100080.97
2023-03-05T17:51:17.055Z,100105.78
2023-03-05T17:53:45.966Z,100095.91
2023-03-05T17:56:17.134Z,100088.00
2023-03-05T17:58:45.361Z,100100.44
2023-03-05T18:01:26.942Z,100102.41
2023-03-05T18:03:56.523Z,100100.84
2023-03-05T18:06:25.598Z,100104.63
2023-03-05T18:08:54.914Z,100105.72
2023-03-05T18:11:23.861Z,100108.22
2023-03-05T18:13:53.206Z,100110.25
2023-03-05T18:16:23.603Z,100105.09
2023-03-05T18:18:53.695Z,100104.41
2023-03-05T18:21:24.635Z,100108.84
2023-03-05T18:23:53.025Z,100107.31
2023-03-05T18:26:21.916Z,100108.84
2023-03-05T18:28:50.470Z,100108.78
2023-03-05T18:31:19.483Z,100114.56
2023-03-05T18:33:47.805Z,100111.31
2023-03-05T18:36:16.630Z,100112.88
2023-03-05T18:38:45.188Z,100114.28
2023-03-05T18:41:23.331Z,100118.06
2023-03-05T18:43:53.908Z,100112.59
2023-03-05T18:46:22.662Z,100119.44
2023-03-05T18:48:51.052Z,100112.16
2023-03-05T18:51:21.815Z,100112.94
2023-03-05T18:53:52.291Z,100119.91
2023-03-05T18:56:21.742Z,100114.66
2023-03-05T18:58:50.493Z,100116.53
2023-03-05T19:01:20.201Z,100116.69
2023-03-05T19:03:49.543Z,100121.59
2023-03-05T19:06:18.121Z,100117.91
2023-03-05T19:08:46.908Z,100117.56
2023-03-05T19:11:21.073Z,100115.19
2023-03-05T19:13:52.755Z,100118.94
2023-03-05T19:16:23.808Z,100119.97
2023-03-05T19:19:20.305Z,100120.81
2023-03-05T19:21:53.807Z,100126.38
2023-03-05T19:24:23.775Z,100124.75
2023-03-05T19:26:55.537Z,100124.94
2023-03-05T19:29:24.952Z,100123.03
2023-03-05T19:31:54.525Z,100124.94
2023-03-05T19:34:22.677Z,100112.88
2023-03-05T19:36:52.360Z,100112.97
2023-03-05T19:39:20.507Z,100119.16
2023-03-05T19:41:49.181Z,100118.03
2023-03-05T19:44:19.115Z,100119.06
2023-03-05T19:46:49.408Z,100123.28
2023-03-05T19:49:18.444Z,100120.72
2023-03-05T19:51:47.800Z,100111.88
2023-03-05T19:54:17.612Z,100127.03
2023-03-05T19:56:47.648Z,100134.16
2023-03-05T19:59:18.075Z,100135.19
2023-03-05T20:01:46.949Z,100137.75
2023-03-05T20:04:18.624Z,100144.09
2023-03-05T20:06:47.941Z,100147.94
2023-03-05T20:09:16.597Z,100149.06
2023-03-05T20:11:46.014Z,100152.03
2023-03-05T20:14:14.870Z,100143.19
2023-03-05T20:16:44.012Z,100150.94
2023-03-05T20:19:16.739Z,100150.94
2023-03-05T20:21:46.282Z,100156.41
2023-03-05T20:24:18.095Z,100159.06
2023-03-05T20:26:47.476Z,100154.59
2023-03-05T20:29:18.036Z,100148.44
2023-03-05T20:31:48.114Z,100144.03
2023-03-05T20:34:18.340Z,100144.91
2023-03-05T20:36:47.332Z,100147.47
2023-03-05T20:39:15.967Z,100151.09
2023-03-05T20:41:44.903Z,100147.78
2023-03-05T20:44:14.412Z,100155.69
2023-03-05T20:47:24.266Z,100155.78
2023-03-05T20:50:00.005Z,100154.91
2023-03-05T20:52:28.623Z,100158.59
2023-03-05T20:54:56.982Z,100164.00
2023-03-05T20:57:25.513Z,100149.97
2023-03-05T20:59:53.794Z,100151.84
2023-03-05T21:02:22.471Z,100161.63
2023-03-05T21:04:50.754Z,100154.72
2023-03-05T21:07:19.302Z,100150.28
2023-03-05T21:09:47.460Z,100146.91
2023-03-05T21:12:16.107Z,100142.72
2023-03-05T21:14:44.197Z,100148.91
2023-03-05T21:17:13.865Z,100135.91
2023-03-05T21:19:42.537Z,100141.06
2023-03-05T21:22:11.017Z,100145.59
2023-03-05T21:25:21.212Z,100142.94
2023-03-05T21:28:07.253Z,100141.22
2023-03-05T21:30:43.645Z,100143.09
2023-03-05T21:33:15.210Z,100144.03
2023-03-05T21:35:43.842Z,100135.28
2023-03-05T21:38:12.483Z,100132.63
2023-03-05T21:40:45.532Z,100124.66
2023-03-05T21:43:15.454Z,100129.09
2023-03-05T21:45:44.985Z,100123.84
2023-03-05T21:48:14.385Z,100130.97
2023-03-05T21:50:45.879Z,100119.81
2023-03-05T21:53:15.512Z,100124.00
2023-03-05T21:56:14.393Z,100119.66
2023-03-05T21:58:50.247Z,100122.41
2023-03-05T22:01:21.392Z,100117.16
2023-03-05T22:03:50.496Z,100109.19
2023-03-05T22:06:19.311Z,100105.75
2023-03-05T22:08:48.472Z,100117.16
2023-03-05T22:11:18.107Z,100118.09
2023-03-05T22:13:46.951Z,100112.94
2023-03-05T22:16:23.291Z,100112.94
2023-03-05T22:18:52.427Z,100106.81
2023-03-05T22:21:28.528Z,100110.28
2023-03-05T22:23:58.220Z,100105.03
2023-03-05T22:26:27.447Z,100105.03
2023-03-05T22:28:55.871Z,100108.56
2023-03-05T22:31:26.780Z,100098.84
2023-03-05T22:33:55.157Z,100095.41
2023-03-05T22:36:24.066Z,100095.41
2023-03-05T22:38:52.648Z,100088.38
2023-03-05T22:41:21.360Z,100088.38
2023-03-05T22:43:51.203Z,100093.69
2023-03-05T22:46:25.436Z,100091.97
2023-03-05T22:48:54.619Z,100089.56
2023-03-05T22:51:22.847Z,100089.72
2023-03-05T22:53:51.649Z,100086.28
2023-03-05T22:56:20.831Z,100083.69
2023-03-05T22:58:49.458Z,100083.84
2023-03-05T23:01:20.760Z,100085.72
2023-03-05T23:04:31.371Z,100082.13
2023-03-05T23:07:28.993Z,100082.28
2023-03-05T23:10:03.600Z,100083.13
2023-03-05T23:12:33.676Z,100075.31
2023-03-05T23:15:04.188Z,100078.84
2023-03-05T23:17:32.422Z,100084.16
2023-03-05T23:20:00.810Z,100084.16
2023-03-05T23:22:28.950Z,100075.50
2023-03-05T23:24:57.605Z,100076.28
2023-03-05T23:27:25.778Z,100074.56
2023-03-05T23:30:19.926Z,100078.16
2023-03-05T23:32:53.091Z,100074.72
2023-03-05T23:35:25.210Z,100068.53
2023-03-05T23:37:54.709Z,100081.03
2023-03-05T23:40:28.678Z,100074.84
2023-03-05T23:42:57.086Z,100076.66
2023-03-05T23:45:25.926Z,100074.00
2023-03-05T23:47:54.467Z,100079.31
2023-03-05T23:50:28.921Z,100078.53
2023-03-05T23:52:58.750Z,100069.69
2023-03-05T23:55:33.818Z,100070.69
2023-03-05T23:58:02.085Z,100082.09
